createdAt,value
2022-12-08T00:01:22.564Z,11.90
2022-12-08T00:03:49.603Z,13.07
2022-12-08T00:06:52.502Z,13.43
2022-12-08T00:09:32.031Z,13.17
2022-12-08T00:12:11.726Z,13.03
2022-12-08T00:14:40.974Z,12.73
2022-12-08T00:17:09.957Z,12.90
2022-12-08T00:19:39.514Z,12.53
2022-12-08T00:22:08.295Z,13.63
2022-12-08T00:24:39.380Z,14.30
2022-12-08T00:27:07.328Z,14.30
2022-12-08T00:29:34.381Z,14.27
2022-12-08T00:32:02.548Z,14.50
2022-12-08T00:34:29.699Z,14.80
2022-12-08T00:36:56.724Z,15.00
2022-12-08T00:39:23.830Z,14.73
2022-12-08T00:42:09.593Z,15.17
2022-12-08T00:44:37.675Z,15.57
2022-12-08T00:47:06.068Z,14.33
2022-12-08T00:49:33.207Z,14.57
2022-12-08T00:52:00.231Z,14.63
2022-12-08T00:54:27.260Z,15.10
2022-12-08T00:56:54.320Z,15.13
2022-12-08T00:59:21.637Z,14.93
2022-12-08T01:01:49.209Z,15.17
2022-12-08T01:04:18.072Z,14.70
2022-12-08T01:06:45.894Z,15.13
2022-12-08T01:09:14.056Z,15.60
2022-12-08T01:11:41.092Z,15.20
2022-12-08T01:14:08.150Z,14.67
2022-12-08T01:16:36.285Z,14.90
2022-12-08T01:19:04.504Z,14.70
2022-12-08T01:21:31.811Z,14.30
2022-12-08T01:24:00.385Z,14.77
2022-12-08T01:26:27.839Z,14.23
2022-12-08T01:28:55.209Z,14.00
2022-12-08T01:31:23.520Z,14.30
2022-12-08T01:33:50.746Z,14.47
2022-12-08T01:36:31.143Z,14.97
2022-12-08T01:38:59.608Z,14.40
2022-12-08T01:41:28.595Z,14.43
2022-12-08T01:44:01.780Z,14.43
2022-12-08T01:46:30.203Z,15.37
2022-12-08T01:49:01.646Z,15.03
2022-12-08T01:51:29.365Z,15.30
2022-12-08T01:53:56.805Z,14.83
2022-12-08T01:56:30.941Z,15.67
2022-12-08T01:58:58.355Z,15.57
2022-12-08T02:01:25.540Z,15.87
2022-12-08T02:03:55.925Z,15.40
2022-12-08T02:06:23.150Z,14.03
2022-12-08T02:08:50.737Z,15.53
2022-12-08T02:11:17.813Z,14.87
2022-12-08T02:13:46.168Z,13.80
2022-12-08T02:16:24.243Z,14.30
2022-12-08T02:19:30.299Z,14.47
2022-12-08T02:21:56.781Z,13.60
2022-12-08T02:24:23.832Z,14.80
2022-12-08T02:26:59.995Z,14.43
2022-12-08T02:29:40.401Z,14.47
2022-12-08T02:32:19.682Z,14.20
2022-12-08T02:34:46.773Z,13.27
2022-12-08T02:37:29.275Z,14.07
2022-12-08T02:40:20.593Z,14.03
2022-12-08T02:42:53.535Z,14.40
2022-12-08T02:45:26.084Z,13.00
2022-12-08T02:47:53.232Z,14.83
2022-12-08T02:50:20.311Z,12.63
2022-12-08T02:52:48.446Z,13.67
2022-12-08T02:55:38.425Z,13.80
2022-12-08T02:58:20.550Z,12.77
2022-12-08T03:00:50.365Z,12.97
2022-12-08T03:03:30.557Z,12.53
2022-12-08T03:06:02.147Z,13.50
2022-12-08T03:08:35.127Z,13.70
2022-12-08T03:11:03.724Z,11.87
2022-12-08T03:13:36.185Z,13.47
2022-12-08T03:16:05.965Z,13.33
2022-12-08T03:18:34.917Z,13.87
2022-12-08T03:21:03.934Z,12.83
2022-12-08T03:23:31.348Z,12.50
2022-12-08T03:26:17.266Z,13.00
2022-12-08T03:28:45.905Z,13.80
2022-12-08T03:31:14.575Z,13.77
2022-12-08T03:33:45.887Z,13.23
2022-12-08T03:36:13.859Z,12.80
2022-12-08T03:38:42.092Z,12.77
2022-12-08T03:41:18.277Z,14.07
2022-12-08T03:43:49.483Z,13.90
2022-12-08T03:46:17.231Z,13.93
2022-12-08T03:48:44.351Z,14.10
2022-12-08T03:51:11.555Z,15.67
2022-12-08T03:53:38.601Z,14.90
2022-12-08T03:56:35.028Z,16.87
2022-12-08T03:59:02.449Z,15.13
2022-12-08T04:01:29.635Z,15.17
2022-12-08T04:03:57.088Z,15.67
2022-12-08T04:06:24.140Z,14.97
2022-12-08T04:08:52.081Z,16.53
2022-12-08T04:11:19.720Z,16.17
2022-12-08T04:13:46.924Z,16.30
2022-12-08T04:16:19.036Z,15.43
2022-12-08T04:18:46.189Z,16.37
2022-12-08T04:21:13.499Z,16.20
2022-12-08T04:23:40.644Z,16.00
2022-12-08T04:26:08.203Z,15.77
2022-12-08T04:28:37.669Z,15.07
2022-12-08T04:31:07.264Z,15.43
2022-12-08T04:33:35.245Z,15.10
2022-12-08T04:36:03.096Z,15.83
2022-12-08T04:38:30.277Z,15.00
2022-12-08T04:40:57.435Z,15.50
2022-12-08T04:43:24.580Z,15.53
2022-12-08T04:45:51.658Z,17.63
2022-12-08T04:48:19.039Z,17.47
2022-12-08T04:50:46.865Z,15.53
2022-12-08T04:53:14.282Z,16.70
2022-12-08T04:55:43.647Z,17.20
2022-12-08T04:58:13.789Z,16.23
2022-12-08T05:00:41.999Z,15.77
2022-12-08T05:03:09.421Z,17.47
2022-12-08T05:05:36.696Z,19.03
2022-12-08T05:08:03.892Z,17.77
2022-12-08T05:10:31.062Z,18.47
2022-12-08T05:13:00.449Z,18.87
2022-12-08T05:15:27.714Z,16.80
2022-12-08T05:17:54.772Z,18.37
2022-12-08T05:20:23.399Z,18.73
2022-12-08T05:22:50.967Z,19.20
2022-12-08T05:25:19.127Z,19.30
2022-12-08T05:27:46.217Z,19.10
2022-12-08T05:30:14.899Z,18.43
2022-12-08T05:32:44.273Z,18.50
2022-12-08T05:35:11.486Z,18.33
2022-12-08T05:37:39.602Z,17.13
2022-12-08T05:40:07.292Z,16.73
2022-12-08T05:42:34.631Z,17.57
2022-12-08T05:45:01.827Z,16.27
2022-12-08T05:47:33.116Z,17.20
2022-12-08T05:50:05.266Z,16.60
2022-12-08T05:52:32.961Z,15.93
2022-12-08T05:55:00.005Z,16.23
2022-12-08T05:57:27.147Z,16.30
2022-12-08T05:59:54.243Z,15.80
2022-12-08T06:02:22.884Z,16.13
2022-12-08T06:04:50.029Z,16.13
2022-12-08T06:07:18.341Z,16.00
2022-12-08T06:09:45.465Z,16.80
2022-12-08T06:12:12.780Z,16.27
2022-12-08T06:14:41.907Z,15.00
2022-12-08T06:17:09.677Z,15.03
2022-12-08T06:19:36.816Z,16.27
2022-12-08T06:22:05.501Z,16.00
2022-12-08T06:24:32.552Z,15.50
2022-12-08T06:26:59.589Z,15.53
2022-12-08T06:29:27.596Z,15.00
2022-12-08T06:31:54.760Z,13.97
2022-12-08T06:34:21.855Z,15.17
2022-12-08T06:36:50.129Z,14.70
2022-12-08T06:39:17.223Z,13.93
2022-12-08T06:42:03.205Z,14.10
2022-12-08T06:44:31.768Z,12.83
2022-12-08T06:47:00.530Z,13.20
2022-12-08T06:49:29.155Z,12.87
2022-12-08T06:51:56.204Z,12.40
2022-12-08T06:54:24.592Z,13.27
2022-12-08T06:56:51.689Z,12.00
2022-12-08T06:59:20.012Z,11.87
2022-12-08T07:01:48.808Z,13.03
2022-12-08T07:04:15.898Z,13.63
2022-12-08T07:06:42.960Z,12.87
2022-12-08T07:09:10.036Z,11.83
2022-12-08T07:11:38.605Z,12.87
2022-12-08T07:14:05.752Z,12.50
2022-12-08T07:16:33.076Z,12.37
2022-12-08T07:19:00.525Z,15.07
2022-12-08T07:21:27.589Z,13.97
2022-12-08T07:23:57.920Z,14.80
2022-12-08T07:26:27.350Z,13.83
2022-12-08T07:28:54.459Z,11.93
2022-12-08T07:31:23.087Z,14.27
2022-12-08T07:33:50.903Z,25.37
2022-12-08T07:36:17.954Z,16.17
2022-12-08T07:38:45.043Z,18.50
2022-12-08T07:41:15.933Z,10.97
2022-12-08T07:43:43.062Z,17.73
2022-12-08T07:46:15.824Z,15.13
2022-12-08T07:48:43.169Z,13.37
2022-12-08T07:51:11.396Z,10.57
2022-12-08T07:53:42.555Z,9.97
2022-12-08T07:56:10.690Z,15.30
2022-12-08T07:58:37.859Z,12.13
2022-12-08T08:01:05.145Z,11.10
2022-12-08T08:03:33.787Z,10.70
2022-12-08T08:06:04.315Z,11.70
2022-12-08T08:08:31.885Z,10.40
2022-12-08T08:10:59.304Z,9.37
2022-12-08T08:13:26.355Z,10.20
2022-12-08T08:15:53.663Z,9.63
2022-12-08T08:18:20.813Z,10.10
2022-12-08T08:20:47.840Z,12.97
2022-12-08T08:23:14.913Z,11.67
2022-12-08T08:25:41.995Z,10.30
2022-12-08T08:28:09.026Z,9.93
2022-12-08T08:30:36.117Z,8.23
2022-12-08T08:33:03.278Z,7.77
2022-12-08T08:35:30.686Z,7.33
2022-12-08T08:37:57.833Z,9.33
2022-12-08T08:40:25.000Z,8.40
2022-12-08T08:42:52.142Z,8.13
2022-12-08T08:45:19.342Z,7.13
2022-12-08T08:47:46.458Z,6.90
2022-12-08T08:50:13.533Z,10.77
2022-12-08T08:52:40.592Z,12.47
2022-12-08T08:55:07.841Z,7.63
2022-12-08T08:57:34.880Z,7.10
2022-12-08T09:00:02.137Z,5.73
2022-12-08T09:02:29.462Z,5.57
2022-12-08T09:04:56.684Z,4.97
2022-12-08T09:07:23.801Z,5.00
2022-12-08T09:09:50.865Z,5.40
2022-12-08T09:12:17.931Z,5.30
2022-12-08T09:14:45.981Z,5.03
2022-12-08T09:17:13.117Z,4.57
2022-12-08T09:19:40.165Z,4.90
2022-12-08T09:22:07.366Z,4.83
2022-12-08T09:24:34.476Z,4.87
2022-12-08T09:27:01.517Z,4.93
2022-12-08T09:29:34.017Z,4.50
2022-12-08T09:32:02.929Z,5.27
2022-12-08T09:34:31.188Z,5.17
2022-12-08T09:36:58.398Z,5.53
2022-12-08T09:39:25.454Z,5.50
2022-12-08T09:41:59.418Z,4.37
2022-12-08T09:44:42.151Z,5.10
2022-12-08T09:47:16.083Z,5.23
2022-12-08T09:49:47.049Z,5.50
2022-12-08T09:52:23.869Z,5.00
2022-12-08T09:54:50.900Z,5.13
2022-12-08T09:57:19.797Z,4.97
2022-12-08T09:59:49.812Z,6.33
2022-12-08T10:02:24.517Z,5.40
2022-12-08T10:04:52.160Z,5.70
2022-12-08T10:07:30.730Z,5.40
2022-12-08T10:10:16.769Z,5.30
2022-12-08T10:12:47.606Z,5.20
2022-12-08T10:15:37.955Z,5.10
2022-12-08T10:18:10.879Z,5.27
2022-12-08T10:20:39.284Z,5.33
2022-12-08T10:23:09.162Z,5.00
2022-12-08T10:25:38.789Z,6.67
2022-12-08T10:28:05.878Z,5.37
2022-12-08T10:30:32.956Z,6.60
2022-12-08T10:33:00.579Z,5.13
2022-12-08T10:35:42.938Z,5.37
2022-12-08T10:38:17.198Z,4.80
2022-12-08T10:40:45.873Z,5.37
2022-12-08T10:43:22.181Z,5.53
2022-12-08T10:45:49.437Z,4.77
2022-12-08T10:48:16.494Z,5.20
2022-12-08T10:50:44.741Z,4.87
2022-12-08T10:53:14.103Z,4.83
2022-12-08T10:55:42.940Z,5.27
2022-12-08T10:58:28.801Z,5.37
2022-12-08T11:01:00.205Z,5.43
2022-12-08T11:03:29.175Z,5.43
2022-12-08T11:05:57.374Z,4.77
2022-12-08T11:08:24.728Z,4.63
2022-12-08T11:10:51.869Z,4.90
2022-12-08T11:13:24.358Z,4.10
2022-12-08T11:15:53.040Z,4.30
2022-12-08T11:18:22.917Z,4.17
2022-12-08T11:20:57.376Z,4.07
2022-12-08T11:23:25.341Z,4.00
2022-12-08T11:25:53.421Z,4.67
2022-12-08T11:28:24.044Z,4.63
2022-12-08T11:30:57.771Z,4.03
2022-12-08T11:33:28.832Z,3.73
2022-12-08T11:36:06.388Z,3.27
2022-12-08T11:38:35.348Z,3.80
2022-12-08T11:41:07.520Z,4.80
2022-12-08T11:43:44.042Z,4.10
2022-12-08T11:46:20.838Z,3.87
2022-12-08T11:48:55.541Z,4.00
2022-12-08T11:51:29.639Z,3.90
2022-12-08T11:54:07.019Z,4.23
2022-12-08T11:56:45.741Z,3.70
2022-12-08T11:59:24.996Z,4.27
2022-12-08T12:01:53.310Z,3.53
2022-12-08T12:04:30.346Z,3.60
2022-12-08T12:07:13.776Z,3.90
2022-12-08T12:09:52.679Z,4.40
2022-12-08T12:12:29.006Z,3.67
2022-12-08T12:15:08.139Z,4.10
2022-12-08T12:17:50.285Z,3.83
2022-12-08T12:20:20.699Z,4.03
2022-12-08T12:22:50.710Z,4.33
2022-12-08T12:25:22.364Z,4.20
2022-12-08T12:27:50.281Z,4.20
2022-12-08T12:30:27.796Z,4.20
2022-12-08T12:32:57.381Z,4.47
2022-12-08T12:35:44.929Z,4.50
2022-12-08T12:38:41.960Z,4.77
2022-12-08T12:41:10.896Z,4.53
2022-12-08T12:43:39.213Z,4.67
2022-12-08T12:46:27.288Z,4.43
2022-12-08T12:48:54.503Z,6.03
2022-12-08T12:51:36.600Z,12.07
2022-12-08T12:54:25.970Z,9.47
2022-12-08T12:57:05.344Z,7.57
2022-12-08T13:00:05.136Z,5.60
2022-12-08T13:02:38.435Z,5.10
2022-12-08T13:05:08.821Z,4.70
2022-12-08T13:07:39.913Z,4.77
2022-12-08T13:10:16.297Z,4.33
2022-12-08T13:12:44.597Z,5.07
2022-12-08T13:15:34.885Z,5.87
2022-12-08T13:18:02.057Z,5.20
2022-12-08T13:20:29.464Z,15.33
2022-12-08T13:23:13.745Z,15.73
2022-12-08T13:25:45.941Z,6.63
2022-12-08T13:28:31.427Z,5.60
2022-12-08T13:30:59.550Z,4.77
2022-12-08T13:33:34.439Z,5.40
2022-12-08T13:36:20.234Z,4.40
2022-12-08T13:38:47.986Z,5.10
2022-12-08T13:41:19.733Z,4.67
2022-12-08T13:44:31.163Z,5.37
2022-12-08T13:51:15.941Z,4.43
2022-12-08T13:56:51.248Z,4.37
2022-12-08T13:58:17.954Z,4.33
2022-12-08T14:00:54.409Z,4.33
2022-12-08T14:03:21.693Z,4.07
2022-12-08T14:06:11.594Z,4.07
2022-12-08T14:09:00.098Z,4.17
2022-12-08T14:11:34.530Z,5.07
2022-12-08T14:14:45.774Z,3.63
2022-12-08T14:17:12.361Z,4.50
2022-12-08T14:19:39.524Z,4.07
2022-12-08T14:22:09.564Z,4.83
2022-12-08T14:24:36.644Z,4.03
2022-12-08T14:27:05.197Z,3.87
2022-12-08T14:29:52.622Z,5.30
2022-12-08T14:32:21.581Z,3.13
2022-12-08T14:35:07.502Z,4.10
2022-12-08T14:37:45.268Z,4.40
2022-12-08T14:40:31.172Z,4.20
2022-12-08T14:43:10.386Z,3.83
2022-12-08T14:45:43.297Z,3.77
2022-12-08T14:48:26.349Z,4.10
2022-12-08T14:51:01.885Z,5.60
2022-12-08T14:53:49.295Z,18.40
2022-12-08T14:56:17.385Z,8.90
2022-12-08T14:58:44.779Z,4.10
2022-12-08T15:01:13.857Z,3.30
2022-12-08T15:03:50.431Z,4.10
2022-12-08T15:06:21.196Z,3.57
2022-12-08T15:08:56.570Z,3.63
2022-12-08T15:11:23.849Z,3.53
2022-12-08T15:13:52.236Z,3.47
2022-12-08T15:16:39.273Z,3.90
2022-12-08T15:19:23.329Z,3.73
2022-12-08T15:21:51.342Z,3.93
2022-12-08T15:24:25.001Z,3.53
2022-12-08T15:26:53.065Z,3.77
2022-12-08T15:29:24.767Z,4.47
2022-12-08T15:31:53.268Z,4.57
2022-12-08T15:34:22.026Z,4.00
2022-12-08T15:36:54.405Z,4.27
2022-12-08T15:39:34.712Z,5.30
2022-12-08T15:42:03.100Z,5.13
2022-12-08T15:44:32.470Z,5.07
2022-12-08T15:47:00.165Z,5.40
2022-12-08T15:49:27.324Z,4.70
2022-12-08T15:52:01.976Z,4.70
2022-12-08T15:54:37.700Z,4.57
2022-12-08T15:57:20.112Z,5.00
2022-12-08T15:59:52.331Z,5.00
2022-12-08T16:02:22.874Z,5.53
2022-12-08T16:07:38.258Z,7.43
2022-12-08T16:10:06.852Z,7.00
2022-12-08T16:13:55.041Z,7.90
2022-12-08T16:15:53.526Z,6.97
2022-12-08T16:18:27.880Z,6.90
2022-12-08T16:23:44.248Z,8.93
2022-12-08T16:26:28.359Z,7.90
2022-12-08T16:28:56.201Z,9.73
2022-12-08T16:31:23.666Z,9.00
2022-12-08T16:33:50.874Z,8.80
2022-12-08T16:36:17.970Z,9.27
2022-12-08T16:38:46.640Z,8.10
2022-12-08T16:41:36.344Z,7.97
2022-12-08T16:44:04.267Z,9.53
2022-12-08T16:46:31.540Z,9.77
2022-12-08T16:48:58.937Z,10.63
2022-12-08T16:51:27.424Z,14.23
2022-12-08T16:53:55.128Z,12.73
2022-12-08T16:56:28.819Z,14.57
2022-12-08T16:58:59.314Z,12.50
2022-12-08T17:01:26.466Z,14.70
2022-12-08T17:04:29.365Z,14.80
2022-12-08T17:06:44.077Z,15.27
2022-12-08T17:09:11.182Z,13.67
2022-12-08T17:11:42.931Z,14.10
2022-12-08T17:14:11.810Z,13.03
2022-12-08T17:16:38.963Z,13.60
2022-12-08T17:19:06.087Z,13.30
2022-12-08T17:21:33.154Z,12.77
2022-12-08T17:24:00.304Z,11.63
2022-12-08T17:26:27.513Z,11.50
2022-12-08T17:29:00.856Z,12.07
2022-12-08T17:31:30.248Z,11.00
2022-12-08T17:34:01.858Z,11.00
2022-12-08T17:36:30.710Z,11.77
2022-12-08T17:39:01.352Z,12.60
2022-12-08T17:41:28.656Z,11.67
2022-12-08T17:43:56.134Z,11.37
2022-12-08T17:46:23.873Z,12.60
2022-12-08T17:48:50.990Z,12.67
2022-12-08T17:51:18.358Z,13.13
2022-12-08T17:53:45.667Z,12.80
2022-12-08T17:56:17.089Z,13.43
2022-12-08T17:58:45.684Z,12.77
2022-12-08T18:01:14.808Z,12.40
2022-12-08T18:03:44.229Z,13.03
2022-12-08T18:06:13.355Z,12.80
2022-12-08T18:08:40.854Z,13.03
2022-12-08T18:11:13.177Z,13.70
2022-12-08T18:13:41.114Z,14.07
2022-12-08T18:16:08.359Z,12.23
2022-12-08T18:18:35.400Z,13.03
2022-12-08T18:21:02.456Z,12.97
2022-12-08T18:23:31.017Z,12.47
2022-12-08T18:25:58.049Z,14.03
2022-12-08T18:28:25.327Z,13.63
2022-12-08T18:30:52.431Z,13.63
2022-12-08T18:33:19.579Z,14.53
2022-12-08T18:35:46.618Z,40.03
2022-12-08T18:38:13.671Z,25.33
2022-12-08T18:40:40.763Z,18.27
2022-12-08T18:43:07.960Z,16.57
2022-12-08T18:45:36.822Z,15.20
2022-12-08T18:48:03.979Z,15.77
2022-12-08T18:50:31.106Z,14.67
2022-12-08T18:52:58.206Z,16.20
2022-12-08T18:55:25.313Z,15.57
2022-12-08T18:57:52.399Z,21.90
2022-12-08T19:00:20.152Z,25.77
2022-12-08T19:02:48.406Z,22.87
2022-12-08T19:05:15.609Z,23.20
2022-12-08T19:07:43.879Z,24.17
2022-12-08T19:10:12.095Z,21.93
2022-12-08T19:12:39.165Z,20.53
2022-12-08T19:15:06.590Z,24.27
2022-12-08T19:17:33.835Z,27.47
2022-12-08T19:20:01.202Z,25.00
2022-12-08T19:22:28.329Z,22.20
2022-12-08T19:24:55.412Z,20.30
2022-12-08T19:27:23.157Z,18.63
2022-12-08T19:29:50.227Z,19.27
2022-12-08T19:32:17.437Z,20.93
2022-12-08T19:34:44.522Z,20.47
2022-12-08T19:37:13.006Z,20.60
2022-12-08T19:39:59.414Z,21.97
2022-12-08T19:42:45.290Z,27.77
2022-12-08T19:45:17.636Z,36.20
2022-12-08T19:47:44.981Z,25.50
2022-12-08T19:50:31.726Z,25.07
2022-12-08T19:52:58.886Z,22.60
2022-12-08T19:55:27.201Z,22.70
2022-12-08T19:57:56.587Z,18.17
2022-12-08T20:00:23.909Z,17.00
2022-12-08T20:02:51.527Z,18.53
2022-12-08T20:05:19.000Z,18.93
2022-12-08T20:07:46.226Z,19.07
2022-12-08T20:10:22.113Z,19.07
2022-12-08T20:12:49.300Z,18.73
2022-12-08T20:15:16.484Z,21.27
2022-12-08T20:17:43.723Z,20.93
2022-12-08T20:20:12.510Z,18.40
2022-12-08T20:22:39.845Z,20.60
2022-12-08T20:25:07.169Z,18.37
2022-12-08T20:27:34.295Z,18.53
2022-12-08T20:30:01.613Z,17.83
2022-12-08T20:32:30.534Z,18.20
2022-12-08T20:34:57.732Z,20.17
2022-12-08T20:37:25.893Z,21.23
2022-12-08T20:39:53.003Z,21.50
2022-12-08T20:42:22.877Z,20.57
2022-12-08T20:44:50.063Z,20.60
2022-12-08T20:47:17.271Z,20.13
2022-12-08T20:49:44.995Z,20.47
2022-12-08T20:52:12.638Z,19.67
2022-12-08T20:54:40.011Z,21.40
2022-12-08T20:57:07.256Z,21.57
2022-12-08T20:59:34.319Z,20.83
2022-12-08T21:02:01.877Z,21.33
2022-12-08T21:04:29.430Z,20.47
2022-12-08T21:06:56.676Z,20.20
2022-12-08T21:09:23.828Z,23.23
2022-12-08T21:11:51.048Z,22.00
2022-12-08T21:14:18.412Z,20.63
2022-12-08T21:16:45.551Z,19.03
2022-12-08T21:19:12.817Z,19.90
2022-12-08T21:21:40.001Z,21.07
2022-12-08T21:24:07.515Z,20.77
2022-12-08T21:26:34.617Z,21.47
2022-12-08T21:29:02.000Z,20.90
2022-12-08T21:31:31.884Z,20.63
2022-12-08T21:33:59.569Z,22.97
2022-12-08T21:36:26.624Z,22.93
2022-12-08T21:38:54.939Z,23.97
2022-12-08T21:41:43.826Z,22.23
2022-12-08T21:44:11.927Z,20.10
2022-12-08T21:46:39.292Z,21.13
2022-12-08T21:49:07.032Z,21.37
2022-12-08T21:51:37.523Z,21.60
2022-12-08T21:54:05.039Z,22.23
2022-12-08T21:56:32.327Z,20.03
2022-12-08T21:58:59.566Z,21.33
2022-12-08T22:01:26.796Z,20.40
2022-12-08T22:03:54.279Z,23.10
2022-12-08T22:06:21.756Z,24.30
2022-12-08T22:08:49.110Z,22.87
2022-12-08T22:11:16.478Z,23.23
2022-12-08T22:13:43.817Z,24.43
2022-12-08T22:16:12.224Z,23.53
2022-12-08T22:18:39.604Z,24.80
2022-12-08T22:21:10.960Z,23.97
2022-12-08T22:23:38.426Z,24.40
2022-12-08T22:26:05.765Z,25.80
2022-12-08T22:28:35.438Z,25.60
2022-12-08T22:31:08.144Z,23.70
2022-12-08T22:33:35.426Z,24.97
2022-12-08T22:36:10.723Z,23.73
2022-12-08T22:38:38.468Z,25.37
2022-12-08T22:41:06.367Z,24.77
2022-12-08T22:43:34.097Z,23.67
2022-12-08T22:46:01.403Z,24.37
2022-12-08T22:48:28.842Z,23.77
2022-12-08T22:51:00.352Z,25.47
2022-12-08T22:53:27.670Z,25.00
2022-12-08T22:55:55.081Z,24.67
2022-12-08T22:58:22.308Z,24.80
2022-12-08T23:00:49.618Z,23.80
2022-12-08T23:03:17.053Z,25.53
2022-12-08T23:05:44.487Z,24.63
2022-12-08T23:08:14.623Z,23.57
2022-12-08T23:10:42.388Z,24.67
2022-12-08T23:13:10.081Z,23.57
2022-12-08T23:15:37.341Z,24.13
2022-12-08T23:18:05.011Z,25.00
2022-12-08T23:20:32.463Z,26.20
2022-12-08T23:22:59.721Z,24.30
2022-12-08T23:25:26.845Z,27.17
2022-12-08T23:27:53.939Z,27.73
2022-12-08T23:30:21.240Z,28.80
2022-12-08T23:32:48.426Z,25.17
2022-12-08T23:35:15.764Z,26.17
2022-12-08T23:37:42.876Z,24.07
2022-12-08T23:40:10.882Z,24.67
2022-12-08T23:42:38.251Z,25.17
2022-12-08T23:45:08.293Z,22.83
2022-12-08T23:47:35.992Z,24.67
2022-12-08T23:50:03.746Z,25.20
2022-12-08T23:52:31.217Z,23.10
2022-12-08T23:54:58.236Z,23.83
2022-12-08T23:57:25.455Z,23.63
2022-12-08T23:59:52.512Z,24.20
